sensor_id;sensor_type;location;lat;lon;timestamp;P1;durP1;ratioP1;P2;durP2;ratioP2
505;SDS011;551;48.524;9.056;2023-06-19T00:01:53;7.83;;;7.13;;
505;SDS011;551;48.524;9.056;2023-06-19T00:04:19;8.33;;;7.53;;
505;SDS011;551;48.524;9.056;2023-06-19T00:06:44;8.20;;;7.57;;
505;SDS011;551;48.524;9.056;2023-06-19T00:09:10;8.60;;;7.70;;
505;SDS011;551;48.524;9.056;2023-06-19T00:11:35;8.20;;;7.60;;
505;SDS011;551;48.524;9.056;2023-06-19T00:14:01;9.30;;;8.50;;
505;SDS011;551;48.524;9.056;2023-06-19T00:16:27;11.03;;;8.70;;
505;SDS011;551;48.524;9.056;2023-06-19T00:18:52;9.53;;;7.93;;
505;SDS011;551;48.524;9.056;2023-06-19T00:21:20;9.50;;;7.97;;
505;SDS011;551;48.524;9.056;2023-06-19T00:23:50;8.97;;;7.53;;
505;SDS011;551;48.524;9.056;2023-06-19T00:26:16;10.50;;;7.57;;
505;SDS011;551;48.524;9.056;2023-06-19T00:28:41;8.87;;;8.07;;
505;SDS011;551;48.524;9.056;2023-06-19T00:31:09;9.57;;;8.70;;
505;SDS011;551;48.524;9.056;2023-06-19T00:33:37;11.20;;;7.87;;
505;SDS011;551;48.524;9.056;2023-06-19T00:36:02;8.33;;;7.63;;
505;SDS011;551;48.524;9.056;2023-06-19T00:38:34;10.00;;;8.10;;
505;SDS011;551;48.524;9.056;2023-06-19T00:41:00;9.37;;;8.50;;
505;SDS011;551;48.524;9.056;2023-06-19T00:43:26;9.00;;;7.53;;
505;SDS011;551;48.524;9.056;2023-06-19T00:45:51;8.77;;;8.00;;
505;SDS011;551;48.524;9.056;2023-06-19T00:48:17;9.47;;;8.20;;
505;SDS011;551;48.524;9.056;2023-06-19T00:50:43;8.97;;;8.13;;
505;SDS011;551;48.524;9.056;2023-06-19T00:53:09;8.60;;;7.50;;
505;SDS011;551;48.524;9.056;2023-06-19T00:55:35;9.10;;;8.17;;
505;SDS011;551;48.524;9.056;2023-06-19T00:58:02;8.80;;;7.90;;
505;SDS011;551;48.524;9.056;2023-06-19T01:00:28;9.00;;;8.10;;
505;SDS011;551;48.524;9.056;2023-06-19T01:02:53;8.87;;;8.10;;
505;SDS011;551;48.524;9.056;2023-06-19T01:05:19;9.63;;;8.60;;
505;SDS011;551;48.524;9.056;2023-06-19T01:08:04;11.23;;;9.87;;
505;SDS011;551;48.524;9.056;2023-06-19T01:11:02;9.00;;;8.10;;
505;SDS011;551;48.524;9.056;2023-06-19T01:15:58;9.60;;;8.70;;
505;SDS011;551;48.524;9.056;2023-06-19T01:18:25;9.23;;;8.43;;
505;SDS011;551;48.524;9.056;2023-06-19T01:20:52;9.17;;;8.27;;
505;SDS011;551;48.524;9.056;2023-06-19T01:23:17;9.37;;;8.53;;
505;SDS011;551;48.524;9.056;2023-06-19T01:25:43;8.67;;;7.87;;
505;SDS011;551;48.524;9.056;2023-06-19T01:28:10;9.37;;;8.30;;
505;SDS011;551;48.524;9.056;2023-06-19T01:30:37;9.00;;;8.10;;
505;SDS011;551;48.524;9.056;2023-06-19T01:33:12;13.63;;;8.23;;
505;SDS011;551;48.524;9.056;2023-06-19T01:35:43;11.27;;;8.40;;
505;SDS011;551;48.524;9.056;2023-06-19T01:38:13;11.50;;;10.30;;
505;SDS011;551;48.524;9.056;2023-06-19T01:40:40;10.27;;;9.27;;
505;SDS011;551;48.524;9.056;2023-06-19T01:43:07;9.47;;;8.50;;
505;SDS011;551;48.524;9.056;2023-06-19T01:45:34;10.20;;;9.20;;
505;SDS011;551;48.524;9.056;2023-06-19T01:48:00;12.70;;;9.70;;
505;SDS011;551;48.524;9.056;2023-06-19T01:50:26;9.57;;;8.60;;
505;SDS011;551;48.524;9.056;2023-06-19T01:52:52;9.63;;;8.63;;
505;SDS011;551;48.524;9.056;2023-06-19T01:55:17;9.57;;;8.57;;
505;SDS011;551;48.524;9.056;2023-06-19T01:57:43;10.10;;;8.60;;
505;SDS011;551;48.524;9.056;2023-06-19T02:00:10;10.30;;;9.23;;
505;SDS011;551;48.524;9.056;2023-06-19T02:02:36;9.20;;;8.30;;
505;SDS011;551;48.524;9.056;2023-06-19T02:05:02;10.60;;;8.43;;
505;SDS011;551;48.524;9.056;2023-06-19T02:07:28;9.40;;;8.60;;
505;SDS011;551;48.524;9.056;2023-06-19T02:09:53;9.47;;;8.10;;
505;SDS011;551;48.524;9.056;2023-06-19T02:12:19;10.80;;;8.40;;
505;SDS011;551;48.524;9.056;2023-06-19T02:14:44;8.80;;;7.90;;
505;SDS011;551;48.524;9.056;2023-06-19T02:17:10;8.53;;;7.60;;
505;SDS011;551;48.524;9.056;2023-06-19T02:19:36;9.40;;;8.40;;
505;SDS011;551;48.524;9.056;2023-06-19T02:22:01;8.63;;;7.07;;
505;SDS011;551;48.524;9.056;2023-06-19T02:24:27;8.50;;;7.70;;
505;SDS011;551;48.524;9.056;2023-06-19T02:26:52;9.80;;;8.03;;
505;SDS011;551;48.524;9.056;2023-06-19T02:29:18;8.87;;;7.97;;
505;SDS011;551;48.524;9.056;2023-06-19T02:31:44;9.13;;;8.13;;
505;SDS011;551;48.524;9.056;2023-06-19T02:34:09;7.93;;;7.10;;
505;SDS011;551;48.524;9.056;2023-06-19T02:36:35;8.47;;;7.67;;
505;SDS011;551;48.524;9.056;2023-06-19T02:39:01;8.03;;;7.30;;
505;SDS011;551;48.524;9.056;2023-06-19T02:41:28;8.47;;;6.80;;
505;SDS011;551;48.524;9.056;2023-06-19T02:43:54;7.73;;;7.03;;
505;SDS011;551;48.524;9.056;2023-06-19T02:46:19;8.80;;;7.63;;
505;SDS011;551;48.524;9.056;2023-06-19T02:48:45;8.00;;;7.20;;
505;SDS011;551;48.524;9.056;2023-06-19T02:51:10;10.63;;;7.50;;
505;SDS011;551;48.524;9.056;2023-06-19T02:53:36;7.43;;;6.83;;
505;SDS011;551;48.524;9.056;2023-06-19T02:56:01;7.57;;;6.60;;
505;SDS011;551;48.524;9.056;2023-06-19T02:58:27;7.23;;;6.53;;
505;SDS011;551;48.524;9.056;2023-06-19T03:00:52;7.43;;;6.73;;
505;SDS011;551;48.524;9.056;2023-06-19T03:03:18;9.53;;;8.57;;
505;SDS011;551;48.524;9.056;2023-06-19T03:05:43;7.20;;;6.60;;
505;SDS011;551;48.524;9.056;2023-06-19T03:08:10;8.90;;;6.80;;
505;SDS011;551;48.524;9.056;2023-06-19T03:10:36;7.50;;;6.80;;
505;SDS011;551;48.524;9.056;2023-06-19T03:13:01;7.87;;;7.10;;
505;SDS011;551;48.524;9.056;2023-06-19T03:15:27;7.73;;;7.00;;
505;SDS011;551;48.524;9.056;2023-06-19T03:17:52;7.30;;;6.67;;
505;SDS011;551;48.524;9.056;2023-06-19T03:20:18;7.47;;;5.87;;
505;SDS011;551;48.524;9.056;2023-06-19T03:22:45;8.63;;;5.90;;
505;SDS011;551;48.524;9.056;2023-06-19T03:25:11;9.23;;;6.50;;
505;SDS011;551;48.524;9.056;2023-06-19T03:27:36;7.17;;;6.57;;
505;SDS011;551;48.524;9.056;2023-06-19T03:30:03;7.33;;;6.70;;
505;SDS011;551;48.524;9.056;2023-06-19T03:32:33;7.57;;;6.90;;
505;SDS011;551;48.524;9.056;2023-06-19T03:34:59;6.93;;;6.33;;
505;SDS011;551;48.524;9.056;2023-06-19T03:37:25;6.70;;;6.10;;
505;SDS011;551;48.524;9.056;2023-06-19T03:39:50;6.97;;;6.03;;
505;SDS011;551;48.524;9.056;2023-06-19T03:42:16;7.40;;;6.80;;
505;SDS011;551;48.524;9.056;2023-06-19T03:44:41;8.47;;;6.53;;
505;SDS011;551;48.524;9.056;2023-06-19T03:47:07;6.30;;;5.70;;
505;SDS011;551;48.524;9.056;2023-06-19T03:49:32;6.77;;;5.40;;
505;SDS011;551;48.524;9.056;2023-06-19T03:51:58;6.00;;;5.40;;
505;SDS011;551;48.524;9.056;2023-06-19T03:54:23;10.03;;;5.50;;
505;SDS011;551;48.524;9.056;2023-06-19T03:56:51;6.30;;;5.33;;
505;SDS011;551;48.524;9.056;2023-06-19T03:59:16;6.00;;;4.60;;
505;SDS011;551;48.524;9.056;2023-06-19T04:01:42;5.40;;;4.90;;
505;SDS011;551;48.524;9.056;2023-06-19T04:04:08;5.60;;;5.03;;
505;SDS011;551;48.524;9.056;2023-06-19T04:06:33;6.57;;;5.67;;
505;SDS011;551;48.524;9.056;2023-06-19T04:08:59;8.80;;;5.40;;
505;SDS011;551;48.524;9.056;2023-06-19T04:11:24;6.13;;;5.57;;
505;SDS011;551;48.524;9.056;2023-06-19T04:13:50;6.00;;;5.50;;
505;SDS011;551;48.524;9.056;2023-06-19T04:16:15;5.73;;;5.17;;
505;SDS011;551;48.524;9.056;2023-06-19T04:18:41;6.13;;;5.63;;
505;SDS011;551;48.524;9.056;2023-06-19T04:21:06;6.93;;;6.30;;
505;SDS011;551;48.524;9.056;2023-06-19T04:23:35;7.50;;;6.30;;
505;SDS011;551;48.524;9.056;2023-06-19T04:26:00;7.70;;;5.27;;
505;SDS011;551;48.524;9.056;2023-06-19T04:28:27;9.63;;;5.70;;
505;SDS011;551;48.524;9.056;2023-06-19T04:30:52;5.60;;;5.13;;
505;SDS011;551;48.524;9.056;2023-06-19T04:33:25;7.93;;;6.00;;
505;SDS011;551;48.524;9.056;2023-06-19T04:35:55;9.20;;;5.00;;
505;SDS011;551;48.524;9.056;2023-06-19T04:38:21;6.60;;;6.00;;
505;SDS011;551;48.524;9.056;2023-06-19T04:40:52;7.97;;;5.93;;
505;SDS011;551;48.524;9.056;2023-06-19T04:43:18;10.33;;;5.57;;
505;SDS011;551;48.524;9.056;2023-06-19T04:45:44;7.20;;;6.10;;
505;SDS011;551;48.524;9.056;2023-06-19T04:48:09;7.20;;;5.87;;
505;SDS011;551;48.524;9.056;2023-06-19T04:50:36;6.00;;;5.50;;
505;SDS011;551;48.524;9.056;2023-06-19T04:53:02;5.80;;;5.30;;
505;SDS011;551;48.524;9.056;2023-06-19T04:55:27;6.53;;;5.20;;
505;SDS011;551;48.524;9.056;2023-06-19T04:57:53;6.57;;;5.70;;
505;SDS011;551;48.524;9.056;2023-06-19T05:00:19;8.70;;;5.40;;
505;SDS011;551;48.524;9.056;2023-06-19T05:02:46;7.03;;;5.60;;
505;SDS011;551;48.524;9.056;2023-06-19T05:05:12;7.00;;;4.90;;
505;SDS011;551;48.524;9.056;2023-06-19T05:07:38;9.47;;;5.67;;
505;SDS011;551;48.524;9.056;2023-06-19T05:10:04;6.37;;;5.80;;
505;SDS011;551;48.524;9.056;2023-06-19T05:12:31;5.40;;;4.83;;
505;SDS011;551;48.524;9.056;2023-06-19T05:14:57;5.30;;;4.80;;
505;SDS011;551;48.524;9.056;2023-06-19T05:17:22;5.60;;;5.07;;
505;SDS011;551;48.524;9.056;2023-06-19T05:19:48;7.23;;;5.20;;
505;SDS011;551;48.524;9.056;2023-06-19T05:22:13;6.53;;;5.00;;
505;SDS011;551;48.524;9.056;2023-06-19T05:24:39;5.20;;;4.80;;
505;SDS011;551;48.524;9.056;2023-06-19T05:27:04;4.90;;;4.40;;
505;SDS011;551;48.524;9.056;2023-06-19T05:29:31;6.67;;;5.00;;
505;SDS011;551;48.524;9.056;2023-06-19T05:31:57;6.40;;;5.10;;
505;SDS011;551;48.524;9.056;2023-06-19T05:34:22;5.30;;;4.80;;
505;SDS011;551;48.524;9.056;2023-06-19T05:36:48;7.73;;;4.83;;
505;SDS011;551;48.524;9.056;2023-06-19T05:39:13;5.67;;;4.80;;
505;SDS011;551;48.524;9.056;2023-06-19T05:41:39;4.87;;;4.37;;
505;SDS011;551;48.524;9.056;2023-06-19T05:44:05;3.97;;;3.67;;
505;SDS011;551;48.524;9.056;2023-06-19T05:46:30;5.00;;;4.57;;
505;SDS011;551;48.524;9.056;2023-06-19T05:48:56;7.00;;;4.50;;
505;SDS011;551;48.524;9.056;2023-06-19T05:51:21;4.97;;;4.27;;
505;SDS011;551;48.524;9.056;2023-06-19T05:53:47;4.43;;;4.03;;
505;SDS011;551;48.524;9.056;2023-06-19T05:56:14;4.47;;;3.37;;
505;SDS011;551;48.524;9.056;2023-06-19T05:58:40;5.50;;;4.63;;
505;SDS011;551;48.524;9.056;2023-06-19T06:01:06;5.67;;;5.10;;
505;SDS011;551;48.524;9.056;2023-06-19T06:03:32;5.00;;;4.50;;
505;SDS011;551;48.524;9.056;2023-06-19T06:06:01;5.93;;;4.30;;
505;SDS011;551;48.524;9.056;2023-06-19T06:08:29;4.97;;;4.50;;
505;SDS011;551;48.524;9.056;2023-06-19T06:10:55;5.27;;;4.47;;
505;SDS011;551;48.524;9.056;2023-06-19T06:13:21;4.50;;;3.97;;
505;SDS011;551;48.524;9.056;2023-06-19T06:15:46;8.67;;;4.63;;
505;SDS011;551;48.524;9.056;2023-06-19T06:18:12;4.53;;;3.80;;
505;SDS011;551;48.524;9.056;2023-06-19T06:20:37;4.67;;;4.27;;
505;SDS011;551;48.524;9.056;2023-06-19T06:23:03;6.40;;;4.57;;
505;SDS011;551;48.524;9.056;2023-06-19T06:25:29;6.30;;;4.80;;
505;SDS011;551;48.524;9.056;2023-06-19T06:27:54;10.17;;;5.13;;
505;SDS011;551;48.524;9.056;2023-06-19T06:30:20;6.00;;;4.37;;
505;SDS011;551;48.524;9.056;2023-06-19T06:32:46;5.17;;;4.67;;
505;SDS011;551;48.524;9.056;2023-06-19T06:35:11;5.33;;;4.93;;
505;SDS011;551;48.524;9.056;2023-06-19T06:37:37;7.77;;;4.20;;
505;SDS011;551;48.524;9.056;2023-06-19T06:40:03;6.37;;;4.60;;
505;SDS011;551;48.524;9.056;2023-06-19T06:42:33;4.67;;;4.10;;
505;SDS011;551;48.524;9.056;2023-06-19T06:44:59;7.10;;;4.93;;
505;SDS011;551;48.524;9.056;2023-06-19T06:47:24;6.47;;;4.70;;
505;SDS011;551;48.524;9.056;2023-06-19T06:49:50;6.87;;;4.50;;
505;SDS011;551;48.524;9.056;2023-06-19T06:52:15;7.10;;;5.07;;
505;SDS011;551;48.524;9.056;2023-06-19T06:54:41;6.13;;;4.20;;
505;SDS011;551;48.524;9.056;2023-06-19T06:57:06;5.20;;;4.70;;
505;SDS011;551;48.524;9.056;2023-06-19T06:59:32;6.03;;;4.77;;
505;SDS011;551;48.524;9.056;2023-06-19T07:01:57;6.80;;;5.10;;
505;SDS011;551;48.524;9.056;2023-06-19T07:04:23;5.57;;;5.00;;
505;SDS011;551;48.524;9.056;2023-06-19T07:06:49;4.40;;;4.00;;
505;SDS011;551;48.524;9.056;2023-06-19T07:09:14;6.23;;;4.97;;
505;SDS011;551;48.524;9.056;2023-06-19T07:11:40;5.20;;;4.47;;
505;SDS011;551;48.524;9.056;2023-06-19T07:14:06;4.73;;;4.33;;
505;SDS011;551;48.524;9.056;2023-06-19T07:16:31;6.60;;;5.40;;
505;SDS011;551;48.524;9.056;2023-06-19T07:18:57;4.80;;;4.40;;
505;SDS011;551;48.524;9.056;2023-06-19T07:21:22;5.53;;;4.70;;
505;SDS011;551;48.524;9.056;2023-06-19T07:23:48;4.53;;;4.07;;
505;SDS011;551;48.524;9.056;2023-06-19T07:26:14;7.13;;;5.13;;
505;SDS011;551;48.524;9.056;2023-06-19T07:28:40;6.00;;;4.60;;
505;SDS011;551;48.524;9.056;2023-06-19T07:31:06;10.00;;;5.50;;
505;SDS011;551;48.524;9.056;2023-06-19T07:33:32;11.03;;;5.17;;
505;SDS011;551;48.524;9.056;2023-06-19T07:35:57;5.10;;;4.60;;
505;SDS011;551;48.524;9.056;2023-06-19T07:38:23;4.63;;;4.27;;
505;SDS011;551;48.524;9.056;2023-06-19T07:40:48;4.53;;;4.23;;
505;SDS011;551;48.524;9.056;2023-06-19T07:43:14;4.37;;;4.07;;
505;SDS011;551;48.524;9.056;2023-06-19T07:45:40;4.47;;;4.17;;
505;SDS011;551;48.524;9.056;2023-06-19T07:48:05;4.50;;;4.10;;
505;SDS011;551;48.524;9.056;2023-06-19T07:50:31;5.80;;;4.63;;
505;SDS011;551;48.524;9.056;2023-06-19T07:52:59;4.20;;;3.63;;
505;SDS011;551;48.524;9.056;2023-06-19T07:55:28;4.80;;;4.40;;
505;SDS011;551;48.524;9.056;2023-06-19T07:57:54;4.93;;;4.53;;
505;SDS011;551;48.524;9.056;2023-06-19T08:00:21;5.40;;;5.00;;
505;SDS011;551;48.524;9.056;2023-06-19T08:02:48;4.53;;;4.23;;
505;SDS011;551;48.524;9.056;2023-06-19T08:05:16;4.73;;;4.33;;
505;SDS011;551;48.524;9.056;2023-06-19T08:07:42;4.50;;;4.10;;
505;SDS011;551;48.524;9.056;2023-06-19T08:10:07;4.43;;;4.07;;
505;SDS011;551;48.524;9.056;2023-06-19T08:12:33;4.97;;;4.57;;
505;SDS011;551;48.524;9.056;2023-06-19T08:14:59;5.33;;;4.93;;
505;SDS011;551;48.524;9.056;2023-06-19T08:17:24;4.53;;;4.23;;
505;SDS011;551;48.524;9.056;2023-06-19T08:19:50;5.33;;;4.73;;
505;SDS011;551;48.524;9.056;2023-06-19T08:22:15;5.10;;;4.70;;
505;SDS011;551;48.524;9.056;2023-06-19T08:24:41;5.13;;;4.73;;
505;SDS011;551;48.524;9.056;2023-06-19T08:27:07;4.37;;;4.07;;
505;SDS011;551;48.524;9.056;2023-06-19T08:29:32;4.73;;;4.33;;
505;SDS011;551;48.524;9.056;2023-06-19T08:31:58;4.77;;;4.37;;
505;SDS011;551;48.524;9.056;2023-06-19T08:34:24;4.93;;;4.43;;
505;SDS011;551;48.524;9.056;2023-06-19T08:36:49;4.37;;;3.97;;
505;SDS011;551;48.524;9.056;2023-06-19T08:39:15;4.47;;;4.13;;
505;SDS011;551;48.524;9.056;2023-06-19T08:41:40;3.73;;;3.53;;
505;SDS011;551;48.524;9.056;2023-06-19T08:44:07;4.17;;;3.87;;
505;SDS011;551;48.524;9.056;2023-06-19T08:46:33;5.17;;;4.77;;
505;SDS011;551;48.524;9.056;2023-06-19T08:48:59;5.20;;;4.10;;
505;SDS011;551;48.524;9.056;2023-06-19T08:51:26;4.70;;;4.40;;
505;SDS011;551;48.524;9.056;2023-06-19T08:53:59;4.73;;;4.30;;
505;SDS011;551;48.524;9.056;2023-06-19T08:56:30;8.37;;;3.70;;
505;SDS011;551;48.524;9.056;2023-06-19T08:59:12;3.20;;;3.00;;
505;SDS011;551;48.524;9.056;2023-06-19T09:01:39;3.07;;;2.77;;
505;SDS011;551;48.524;9.056;2023-06-19T09:04:16;3.90;;;3.30;;
505;SDS011;551;48.524;9.056;2023-06-19T09:06:49;3.60;;;3.40;;
505;SDS011;551;48.524;9.056;2023-06-19T09:09:17;3.30;;;3.10;;
505;SDS011;551;48.524;9.056;2023-06-19T09:14:24;6.40;;;2.87;;
505;SDS011;551;48.524;9.056;2023-06-19T09:16:56;3.40;;;3.10;;
505;SDS011;551;48.524;9.056;2023-06-19T09:19:21;3.10;;;2.80;;
505;SDS011;551;48.524;9.056;2023-06-19T09:21:47;4.73;;;3.40;;
505;SDS011;551;48.524;9.056;2023-06-19T09:24:12;3.77;;;3.43;;
505;SDS011;551;48.524;9.056;2023-06-19T09:26:38;2.83;;;2.63;;
505;SDS011;551;48.524;9.056;2023-06-19T09:29:13;2.70;;;2.50;;
505;SDS011;551;48.524;9.056;2023-06-19T09:31:40;3.27;;;3.07;;
505;SDS011;551;48.524;9.056;2023-06-19T09:34:06;4.77;;;4.37;;
505;SDS011;551;48.524;9.056;2023-06-19T09:36:33;4.37;;;4.07;;
505;SDS011;551;48.524;9.056;2023-06-19T09:39:00;4.23;;;3.63;;
505;SDS011;551;48.524;9.056;2023-06-19T09:41:29;4.20;;;3.90;;
505;SDS011;551;48.524;9.056;2023-06-19T09:43:55;5.17;;;3.40;;
505;SDS011;551;48.524;9.056;2023-06-19T09:46:31;3.90;;;3.40;;
505;SDS011;551;48.524;9.056;2023-06-19T09:49:00;3.47;;;3.20;;
505;SDS011;551;48.524;9.056;2023-06-19T09:51:30;4.10;;;3.67;;
505;SDS011;551;48.524;9.056;2023-06-19T09:53:58;6.10;;;4.00;;
505;SDS011;551;48.524;9.056;2023-06-19T09:56:25;4.30;;;4.00;;
505;SDS011;551;48.524;9.056;2023-06-19T09:58:53;3.00;;;2.90;;
505;SDS011;551;48.524;9.056;2023-06-19T10:01:21;3.63;;;3.50;;
505;SDS011;551;48.524;9.056;2023-06-19T10:03:48;3.80;;;3.53;;
505;SDS011;551;48.524;9.056;2023-06-19T10:06:14;3.40;;;3.20;;
505;SDS011;551;48.524;9.056;2023-06-19T10:08:42;4.53;;;3.47;;
505;SDS011;551;48.524;9.056;2023-06-19T10:11:09;3.90;;;3.60;;
505;SDS011;551;48.524;9.056;2023-06-19T10:13:36;3.93;;;3.70;;
505;SDS011;551;48.524;9.056;2023-06-19T10:16:06;3.73;;;3.53;;
505;SDS011;551;48.524;9.056;2023-06-19T10:18:32;4.23;;;3.80;;
505;SDS011;551;48.524;9.056;2023-06-19T10:21:15;4.43;;;4.10;;
505;SDS011;551;48.524;9.056;2023-06-19T10:23:41;4.37;;;3.90;;
505;SDS011;551;48.524;9.056;2023-06-19T10:26:07;3.60;;;3.37;;
505;SDS011;551;48.524;9.056;2023-06-19T10:28:33;4.47;;;4.17;;
505;SDS011;551;48.524;9.056;2023-06-19T10:31:01;5.00;;;4.23;;
505;SDS011;551;48.524;9.056;2023-06-19T10:33:31;4.63;;;4.30;;
505;SDS011;551;48.524;9.056;2023-06-19T10:35:58;4.53;;;4.10;;
505;SDS011;551;48.524;9.056;2023-06-19T10:38:25;5.03;;;4.63;;
505;SDS011;551;48.524;9.056;2023-06-19T10:40:51;4.70;;;4.30;;
505;SDS011;551;48.524;9.056;2023-06-19T10:43:21;6.67;;;4.03;;
505;SDS011;551;48.524;9.056;2023-06-19T10:45:49;5.10;;;4.70;;
505;SDS011;551;48.524;9.056;2023-06-19T10:48:19;4.30;;;4.00;;
505;SDS011;551;48.524;9.056;2023-06-19T10:50:46;4.30;;;4.10;;
505;SDS011;551;48.524;9.056;2023-06-19T10:53:22;4.60;;;4.27;;
505;SDS011;551;48.524;9.056;2023-06-19T10:55:58;4.90;;;4.33;;
505;SDS011;551;48.524;9.056;2023-06-19T10:58:25;4.23;;;4.03;;
505;SDS011;551;48.524;9.056;2023-06-19T11:00:51;4.33;;;3.83;;
505;SDS011;551;48.524;9.056;2023-06-19T11:03:16;3.47;;;3.27;;
505;SDS011;551;48.524;9.056;2023-06-19T11:05:43;3.93;;;3.70;;
505;SDS011;551;48.524;9.056;2023-06-19T11:08:09;4.23;;;3.93;;
505;SDS011;551;48.524;9.056;2023-06-19T11:10:35;4.00;;;3.70;;
505;SDS011;551;48.524;9.056;2023-06-19T11:13:01;3.90;;;3.70;;
505;SDS011;551;48.524;9.056;2023-06-19T11:15:30;4.17;;;3.87;;
505;SDS011;551;48.524;9.056;2023-06-19T11:17:55;3.77;;;3.57;;
505;SDS011;551;48.524;9.056;2023-06-19T11:20:22;4.30;;;4.00;;
505;SDS011;551;48.524;9.056;2023-06-19T11:22:53;4.50;;;4.20;;
505;SDS011;551;48.524;9.056;2023-06-19T11:25:23;3.83;;;3.50;;
505;SDS011;551;48.524;9.056;2023-06-19T11:28:00;3.80;;;3.50;;
505;SDS011;551;48.524;9.056;2023-06-19T11:30:32;3.87;;;3.57;;
505;SDS011;551;48.524;9.056;2023-06-19T11:32:59;3.47;;;3.27;;
505;SDS011;551;48.524;9.056;2023-06-19T11:35:25;3.67;;;3.47;;
505;SDS011;551;48.524;9.056;2023-06-19T11:38:01;3.53;;;3.30;;
505;SDS011;551;48.524;9.056;2023-06-19T11:40:27;3.73;;;3.43;;
505;SDS011;551;48.524;9.056;2023-06-19T11:42:54;3.83;;;3.63;;
505;SDS011;551;48.524;9.056;2023-06-19T11:45:20;4.00;;;3.80;;
505;SDS011;551;48.524;9.056;2023-06-19T11:47:46;4.80;;;3.60;;
505;SDS011;551;48.524;9.056;2023-06-19T11:50:13;3.33;;;3.13;;
505;SDS011;551;48.524;9.056;2023-06-19T11:52:41;3.70;;;3.50;;
505;SDS011;551;48.524;9.056;2023-06-19T11:55:09;3.63;;;3.43;;
505;SDS011;551;48.524;9.056;2023-06-19T11:57:35;4.00;;;3.70;;
505;SDS011;551;48.524;9.056;2023-06-19T12:00:01;3.77;;;3.57;;
505;SDS011;551;48.524;9.056;2023-06-19T12:02:32;4.40;;;4.00;;
505;SDS011;551;48.524;9.056;2023-06-19T12:04:57;3.87;;;3.57;;
505;SDS011;551;48.524;9.056;2023-06-19T12:07:23;3.53;;;3.23;;
505;SDS011;551;48.524;9.056;2023-06-19T12:09:48;3.60;;;3.40;;
505;SDS011;551;48.524;9.056;2023-06-19T12:12:14;3.63;;;3.33;;
505;SDS011;551;48.524;9.056;2023-06-19T12:14:39;3.20;;;3.00;;
505;SDS011;551;48.524;9.056;2023-06-19T12:17:05;3.90;;;3.17;;
505;SDS011;551;48.524;9.056;2023-06-19T12:19:30;4.00;;;3.70;;
505;SDS011;551;48.524;9.056;2023-06-19T12:21:56;4.27;;;3.97;;
505;SDS011;551;48.524;9.056;2023-06-19T12:24:22;3.43;;;3.23;;
505;SDS011;551;48.524;9.056;2023-06-19T12:26:48;3.87;;;3.40;;
505;SDS011;551;48.524;9.056;2023-06-19T12:29:13;4.10;;;3.70;;
505;SDS011;551;48.524;9.056;2023-06-19T12:31:39;4.33;;;3.93;;
505;SDS011;551;48.524;9.056;2023-06-19T12:34:04;4.40;;;4.07;;
505;SDS011;551;48.524;9.056;2023-06-19T12:36:34;4.30;;;3.97;;
505;SDS011;551;48.524;9.056;2023-06-19T12:38:59;5.53;;;3.60;;
505;SDS011;551;48.524;9.056;2023-06-19T12:41:25;4.57;;;4.27;;
505;SDS011;551;48.524;9.056;2023-06-19T12:43:51;4.20;;;3.90;;
505;SDS011;551;48.524;9.056;2023-06-19T12:46:16;4.10;;;3.80;;
505;SDS011;551;48.524;9.056;2023-06-19T12:48:42;4.30;;;3.97;;
505;SDS011;551;48.524;9.056;2023-06-19T12:51:07;3.97;;;3.67;;
505;SDS011;551;48.524;9.056;2023-06-19T12:53:33;4.03;;;3.80;;
505;SDS011;551;48.524;9.056;2023-06-19T12:55:58;7.37;;;4.97;;
505;SDS011;551;48.524;9.056;2023-06-19T12:58:24;4.60;;;4.30;;
505;SDS011;551;48.524;9.056;2023-06-19T13:00:50;4.83;;;4.40;;
505;SDS011;551;48.524;9.056;2023-06-19T13:03:16;4.37;;;3.77;;
505;SDS011;551;48.524;9.056;2023-06-19T13:05:43;4.37;;;4.07;;
505;SDS011;551;48.524;9.056;2023-06-19T13:08:09;4.07;;;3.77;;
505;SDS011;551;48.524;9.056;2023-06-19T13:10:35;6.00;;;4.30;;
505;SDS011;551;48.524;9.056;2023-06-19T13:13:00;4.37;;;4.07;;
505;SDS011;551;48.524;9.056;2023-06-19T13:15:26;4.90;;;4.37;;
505;SDS011;551;48.524;9.056;2023-06-19T13:17:52;5.53;;;4.23;;
505;SDS011;551;48.524;9.056;2023-06-19T13:20:18;4.20;;;3.90;;
505;SDS011;551;48.524;9.056;2023-06-19T13:22:44;4.30;;;3.80;;
505;SDS011;551;48.524;9.056;2023-06-19T13:25:09;4.23;;;3.90;;
505;SDS011;551;48.524;9.056;2023-06-19T13:27:35;4.53;;;4.13;;
505;SDS011;551;48.524;9.056;2023-06-19T13:30:01;8.30;;;4.50;;
505;SDS011;551;48.524;9.056;2023-06-19T13:32:27;5.03;;;4.43;;
505;SDS011;551;48.524;9.056;2023-06-19T13:34:53;4.80;;;4.40;;
505;SDS011;551;48.524;9.056;2023-06-19T13:37:20;4.63;;;4.23;;
505;SDS011;551;48.524;9.056;2023-06-19T13:39:45;4.97;;;4.57;;
505;SDS011;551;48.524;9.056;2023-06-19T13:42:11;4.03;;;3.77;;
505;SDS011;551;48.524;9.056;2023-06-19T13:44:37;6.20;;;5.17;;
505;SDS011;551;48.524;9.056;2023-06-19T13:47:03;4.50;;;4.20;;
505;SDS011;551;48.524;9.056;2023-06-19T13:49:29;5.03;;;4.53;;
505;SDS011;551;48.524;9.056;2023-06-19T13:51:55;4.50;;;4.20;;
505;SDS011;551;48.524;9.056;2023-06-19T13:54:21;5.43;;;3.97;;
505;SDS011;551;48.524;9.056;2023-06-19T13:56:47;5.83;;;5.17;;
505;SDS011;551;48.524;9.056;2023-06-19T13:59:14;5.77;;;5.30;;
505;SDS011;551;48.524;9.056;2023-06-19T14:01:40;7.03;;;6.50;;
505;SDS011;551;48.524;9.056;2023-06-19T14:04:06;4.83;;;4.47;;
505;SDS011;551;48.524;9.056;2023-06-19T14:06:33;4.60;;;4.20;;
505;SDS011;551;48.524;9.056;2023-06-19T14:08:59;5.43;;;4.93;;
505;SDS011;551;48.524;9.056;2023-06-19T14:11:25;5.60;;;5.20;;
505;SDS011;551;48.524;9.056;2023-06-19T14:13:50;6.30;;;5.70;;
505;SDS011;551;48.524;9.056;2023-06-19T14:16:16;4.97;;;4.57;;
505;SDS011;551;48.524;9.056;2023-06-19T14:18:41;5.43;;;5.03;;
505;SDS011;551;48.524;9.056;2023-06-19T14:21:07;5.00;;;4.63;;
505;SDS011;551;48.524;9.056;2023-06-19T14:23:32;5.50;;;5.10;;
505;SDS011;551;48.524;9.056;2023-06-19T14:26:03;5.23;;;4.83;;
505;SDS011;551;48.524;9.056;2023-06-19T14:28:29;5.30;;;4.80;;
505;SDS011;551;48.524;9.056;2023-06-19T14:30:54;5.47;;;5.10;;
505;SDS011;551;48.524;9.056;2023-06-19T14:33:20;5.20;;;4.83;;
505;SDS011;551;48.524;9.056;2023-06-19T14:35:45;5.40;;;4.90;;
505;SDS011;551;48.524;9.056;2023-06-19T14:38:14;8.67;;;4.57;;
505;SDS011;551;48.524;9.056;2023-06-19T14:40:41;5.50;;;5.10;;
505;SDS011;551;48.524;9.056;2023-06-19T14:43:07;5.10;;;4.70;;
505;SDS011;551;48.524;9.056;2023-06-19T14:45:34;5.50;;;5.10;;
505;SDS011;551;48.524;9.056;2023-06-19T14:48:00;6.50;;;5.53;;
505;SDS011;551;48.524;9.056;2023-06-19T14:50:25;5.83;;;5.33;;
505;SDS011;551;48.524;9.056;2023-06-19T14:52:51;5.50;;;5.10;;
505;SDS011;551;48.524;9.056;2023-06-19T14:55:17;4.87;;;4.57;;
505;SDS011;551;48.524;9.056;2023-06-19T14:57:42;4.90;;;4.50;;
505;SDS011;551;48.524;9.056;2023-06-19T15:00:08;4.90;;;4.50;;
505;SDS011;551;48.524;9.056;2023-06-19T15:02:34;5.17;;;4.73;;
505;SDS011;551;48.524;9.056;2023-06-19T15:05:00;7.50;;;5.07;;
505;SDS011;551;48.524;9.056;2023-06-19T15:07:26;5.03;;;4.60;;
505;SDS011;551;48.524;9.056;2023-06-19T15:09:51;7.83;;;4.90;;
505;SDS011;551;48.524;9.056;2023-06-19T15:12:17;5.87;;;5.47;;
505;SDS011;551;48.524;9.056;2023-06-19T15:14:42;5.80;;;5.30;;
505;SDS011;551;48.524;9.056;2023-06-19T15:17:08;6.07;;;5.57;;
505;SDS011;551;48.524;9.056;2023-06-19T15:19:33;6.60;;;5.13;;
505;SDS011;551;48.524;9.056;2023-06-19T15:21:59;5.70;;;5.20;;
505;SDS011;551;48.524;9.056;2023-06-19T15:24:24;5.70;;;5.20;;
505;SDS011;551;48.524;9.056;2023-06-19T15:26:50;5.40;;;5.00;;
505;SDS011;551;48.524;9.056;2023-06-19T15:29:16;6.53;;;5.50;;
505;SDS011;551;48.524;9.056;2023-06-19T15:31:41;5.93;;;5.40;;
505;SDS011;551;48.524;9.056;2023-06-19T15:34:07;6.17;;;5.53;;
505;SDS011;551;48.524;9.056;2023-06-19T15:36:34;5.97;;;5.37;;
505;SDS011;551;48.524;9.056;2023-06-19T15:39:00;6.13;;;5.53;;
505;SDS011;551;48.524;9.056;2023-06-19T15:41:26;5.93;;;5.33;;
505;SDS011;551;48.524;9.056;2023-06-19T15:43:51;6.90;;;6.10;;
505;SDS011;551;48.524;9.056;2023-06-19T15:46:17;5.83;;;5.33;;